createdAt,value
2022-10-06T00:00:22.497Z,61.54
2022-10-06T00:05:22.642Z,61.24
2022-10-06T00:10:21.665Z,60.50
2022-10-06T00:15:20.199Z,60.96
2022-10-06T00:20:17.604Z,61.51
2022-10-06T00:25:15.542Z,61.08
2022-10-06T00:30:14.077Z,62.15
2022-10-06T00:35:10.641Z,62.90
2022-10-06T00:40:10.657Z,63.63
2022-10-06T00:45:13.927Z,63.44
2022-10-06T00:50:12.900Z,62.59
2022-10-06T00:55:09.649Z,62.96
2022-10-06T01:00:07.019Z,63.16
2022-10-06T01:05:05.418Z,62.96
2022-10-06T01:10:02.128Z,62.99
2022-10-06T01:14:59.385Z,63.03
2022-10-06T01:19:59.481Z,62.58
2022-10-06T01:24:57.426Z,62.38
2022-10-06T01:29:54.836Z,62.02
2022-10-06T01:34:51.556Z,62.45
2022-10-06T01:39:48.200Z,62.97
2022-10-06T01:44:45.683Z,63.88
2022-10-06T01:49:42.740Z,63.72
2022-10-06T01:54:39.328Z,63.63
2022-10-06T01:59:35.929Z,64.09
2022-10-06T02:04:33.293Z,64.11
2022-10-06T02:09:29.898Z,64.85
2022-10-06T02:14:26.732Z,65.10
2022-10-06T02:19:23.675Z,66.13
2022-10-06T02:24:20.912Z,65.45
2022-10-06T02:29:17.587Z,65.29
2022-10-06T02:34:14.266Z,65.64
2022-10-06T02:39:11.057Z,66.87
2022-10-06T02:44:08.579Z,66.47
2022-10-06T02:49:07.197Z,66.20
2022-10-06T02:54:05.386Z,64.78
2022-10-06T02:59:02.159Z,64.67
2022-10-06T03:04:03.252Z,63.67
2022-10-06T03:09:00.744Z,62.56
2022-10-06T03:13:57.852Z,63.95
2022-10-06T03:18:55.218Z,63.01
2022-10-06T03:23:53.400Z,61.82
2022-10-06T03:28:50.199Z,62.98
2022-10-06T03:33:47.355Z,63.53
2022-10-06T03:38:44.093Z,63.90
2022-10-06T03:43:42.639Z,64.23
2022-10-06T03:48:39.612Z,64.59
2022-10-06T03:53:37.064Z,63.52
2022-10-06T03:58:34.644Z,64.85
2022-10-06T04:03:32.735Z,65.03
2022-10-06T04:08:30.461Z,64.61
2022-10-06T04:13:27.828Z,65.01
2022-10-06T04:18:24.712Z,64.88
2022-10-06T04:23:23.071Z,65.81
2022-10-06T04:28:19.911Z,66.14
2022-10-06T04:33:17.285Z,65.82
2022-10-06T04:38:17.414Z,64.73
2022-10-06T04:43:15.118Z,66.46
2022-10-06T04:48:11.954Z,66.76
2022-10-06T04:53:09.188Z,67.04
2022-10-06T04:58:07.480Z,67.50
2022-10-06T05:03:04.993Z,67.25
2022-10-06T05:08:02.215Z,68.01
2022-10-06T05:13:03.228Z,68.14
2022-10-06T05:17:59.982Z,68.62
2022-10-06T05:23:00.172Z,67.55
2022-10-06T05:27:58.358Z,66.17
2022-10-06T05:32:58.281Z,65.88
2022-10-06T05:37:55.305Z,66.00
2022-10-06T05:42:57.958Z,65.77
2022-10-06T05:47:54.826Z,63.62
2022-10-06T05:52:54.031Z,63.97
2022-10-06T05:57:51.846Z,64.77
2022-10-06T06:02:54.670Z,65.09
2022-10-06T06:07:51.597Z,63.63
2022-10-06T06:12:50.358Z,63.90
2022-10-06T06:18:05.437Z,63.31
2022-10-06T06:23:02.458Z,63.87
2022-10-06T06:28:00.245Z,64.49
2022-10-06T06:33:00.466Z,64.47
2022-10-06T06:37:58.938Z,64.89
2022-10-06T06:42:59.124Z,64.79
2022-10-06T06:50:34.761Z,64.18
2022-10-06T07:00:56.809Z,63.04
2022-10-06T07:12:56.593Z,64.18
2022-10-06T07:12:57.651Z,64.01
2022-10-06T07:29:33.689Z,62.47
2022-10-06T07:40:50.515Z,62.09
2022-10-06T07:58:54.090Z,60.41
2022-10-06T08:04:42.124Z,58.58
2022-10-06T08:11:03.342Z,57.85
2022-10-06T08:17:49.050Z,57.24
2022-10-06T08:21:43.146Z,56.64
2022-10-06T08:26:39.797Z,56.31
2022-10-06T08:31:37.253Z,54.50
2022-10-06T08:36:34.073Z,54.82
2022-10-06T08:41:42.709Z,55.09
2022-10-06T08:46:43.515Z,53.76
2022-10-06T08:51:59.129Z,54.80
2022-10-06T08:57:02.231Z,53.93
2022-10-06T09:02:10.337Z,52.69
2022-10-06T09:07:11.789Z,51.51
2022-10-06T09:12:15.977Z,49.36
2022-10-06T09:17:16.878Z,49.51
2022-10-06T09:22:18.559Z,50.38
2022-10-06T09:27:18.145Z,49.55
2022-10-06T09:32:15.552Z,49.07
2022-10-06T09:37:15.381Z,48.92
2022-10-06T09:42:13.423Z,48.91
2022-10-06T09:47:36.646Z,47.79
2022-10-06T09:52:33.314Z,47.25
2022-10-06T09:57:31.387Z,46.00
2022-10-06T10:02:33.218Z,45.54
2022-10-06T10:07:30.587Z,44.25
2022-10-06T10:12:27.505Z,42.40
2022-10-06T10:17:32.422Z,43.38
2022-10-06T10:22:36.704Z,44.06
2022-10-06T10:27:54.749Z,43.37
2022-10-06T10:32:55.908Z,43.93
2022-10-06T10:38:26.176Z,43.67
2022-10-06T10:43:26.209Z,43.33
2022-10-06T10:48:27.877Z,41.37
2022-10-06T10:53:31.299Z,41.50
2022-10-06T10:58:30.694Z,41.42
2022-10-06T11:03:30.122Z,40.85
2022-10-06T11:08:34.626Z,41.16
2022-10-06T11:13:34.607Z,40.70
2022-10-06T11:18:40.980Z,40.54
2022-10-06T11:24:15.687Z,40.86
2022-10-06T11:29:22.111Z,40.19
2022-10-06T11:34:19.194Z,39.09
2022-10-06T11:39:21.538Z,39.61
2022-10-06T11:44:22.473Z,38.65
2022-10-06T11:49:47.987Z,38.75
2022-10-06T11:54:48.746Z,39.87
2022-10-06T11:59:46.389Z,39.59
2022-10-06T12:05:04.176Z,38.97
2022-10-06T12:10:15.752Z,39.01
2022-10-06T12:20:55.692Z,39.62
2022-10-06T12:25:55.516Z,38.48
2022-10-06T12:31:01.645Z,38.66
2022-10-06T12:36:01.723Z,38.29
2022-10-06T12:40:58.967Z,39.07
2022-10-06T12:45:59.545Z,38.92
2022-10-06T12:50:58.958Z,38.98
2022-10-06T12:56:03.813Z,39.29
2022-10-06T13:01:11.387Z,39.38
2022-10-06T13:06:10.683Z,37.87
2022-10-06T13:11:20.802Z,38.17
2022-10-06T13:16:21.157Z,38.78
2022-10-06T13:21:20.061Z,38.06
2022-10-06T13:26:19.668Z,37.50
2022-10-06T13:31:21.683Z,37.98
2022-10-06T13:36:19.429Z,38.29
2022-10-06T13:41:22.136Z,38.86
2022-10-06T13:46:23.575Z,38.25
2022-10-06T13:51:24.843Z,38.46
2022-10-06T13:56:32.288Z,38.24
2022-10-06T14:01:34.200Z,38.39
2022-10-06T14:06:34.456Z,38.33
2022-10-06T14:11:31.091Z,38.63
2022-10-06T14:16:29.052Z,38.63
2022-10-06T14:21:45.205Z,39.16
2022-10-06T14:27:08.560Z,39.33
2022-10-06T14:32:24.375Z,39.64
2022-10-06T14:37:22.944Z,40.01
2022-10-06T14:42:24.290Z,39.98
2022-10-06T14:47:21.029Z,40.02
2022-10-06T14:52:17.675Z,40.59
2022-10-06T14:57:17.207Z,40.32
2022-10-06T15:02:13.859Z,41.02
2022-10-06T15:07:28.556Z,40.31
2022-10-06T15:12:27.689Z,40.41
2022-10-06T15:17:27.686Z,40.66
2022-10-06T15:22:24.170Z,41.54
2022-10-06T15:27:38.547Z,41.71
2022-10-06T15:32:39.137Z,40.81
2022-10-06T15:37:36.216Z,41.01
2022-10-06T15:42:46.357Z,40.91
2022-10-06T15:47:46.689Z,41.35
2022-10-06T15:52:43.579Z,41.85
2022-10-06T15:57:40.246Z,42.65
2022-10-06T16:02:51.104Z,42.96
2022-10-06T16:07:48.594Z,43.08
2022-10-06T16:12:45.180Z,42.96
2022-10-06T16:17:41.880Z,42.91
2022-10-06T16:22:38.692Z,42.80
2022-10-06T16:27:36.059Z,43.25
2022-10-06T16:32:35.059Z,43.02
2022-10-06T16:37:31.837Z,43.36
2022-10-06T16:42:28.508Z,44.10
2022-10-06T16:47:25.910Z,45.02
2022-10-06T16:52:24.989Z,44.79
2022-10-06T16:57:21.875Z,44.85
2022-10-06T17:02:19.072Z,45.96
2022-10-06T17:07:16.560Z,46.33
2022-10-06T17:12:14.620Z,46.96
2022-10-06T17:17:11.472Z,47.90
2022-10-06T17:22:08.370Z,47.83
2022-10-06T17:27:05.879Z,47.19
2022-10-06T17:32:02.700Z,47.60
2022-10-06T17:37:02.806Z,44.58
2022-10-06T17:41:59.781Z,46.14
2022-10-06T17:46:57.921Z,44.40
2022-10-06T17:51:55.004Z,44.37
2022-10-06T17:56:52.578Z,45.06
2022-10-06T18:01:50.609Z,45.54
2022-10-06T18:06:48.071Z,45.91
2022-10-06T18:11:47.653Z,46.76
2022-10-06T18:16:45.510Z,47.19
2022-10-06T18:21:42.950Z,48.00
2022-10-06T18:26:44.320Z,49.05
2022-10-06T18:31:41.727Z,49.17
2022-10-06T18:36:39.511Z,48.71
2022-10-06T18:41:37.420Z,49.13
2022-10-06T18:46:54.337Z,49.57
2022-10-06T18:51:57.285Z,49.97
2022-10-06T18:56:57.387Z,50.14
2022-10-06T19:01:55.973Z,50.04
2022-10-06T19:06:53.652Z,50.83
2022-10-06T19:11:55.442Z,50.86
2022-10-06T19:16:55.729Z,50.38
2022-10-06T19:21:56.534Z,50.67
2022-10-06T19:26:54.514Z,50.24
2022-10-06T19:31:52.848Z,50.29
2022-10-06T19:36:52.163Z,50.35
2022-10-06T19:42:07.717Z,49.90
2022-10-06T19:47:05.242Z,50.09
2022-10-06T19:52:02.592Z,50.38
2022-10-06T19:57:04.510Z,50.54
2022-10-06T20:02:02.732Z,50.61
2022-10-06T20:07:01.117Z,50.49
2022-10-06T20:11:58.224Z,50.93
2022-10-06T20:16:56.901Z,50.86
2022-10-06T20:21:53.435Z,50.94
2022-10-06T20:26:50.831Z,50.53
2022-10-06T20:31:48.522Z,50.11
2022-10-06T20:36:46.257Z,48.09
2022-10-06T20:41:43.527Z,48.51
2022-10-06T20:46:40.513Z,49.59
2022-10-06T20:51:38.275Z,50.57
2022-10-06T20:56:35.618Z,52.49
2022-10-06T21:01:33.294Z,52.92
2022-10-06T21:06:30.289Z,52.48
2022-10-06T21:11:26.930Z,52.26
2022-10-06T21:16:25.087Z,53.06
2022-10-06T21:21:21.574Z,54.03
2022-10-06T21:26:18.744Z,53.89
2022-10-06T21:31:16.379Z,54.15
2022-10-06T21:36:16.423Z,55.10
2022-10-06T21:41:37.455Z,53.46
2022-10-06T21:46:34.911Z,53.39
2022-10-06T21:51:32.061Z,53.13
2022-10-06T21:56:29.480Z,53.24
2022-10-06T22:01:26.911Z,52.69
2022-10-06T22:06:23.812Z,52.00
2022-10-06T22:11:21.958Z,52.01
2022-10-06T22:16:19.519Z,52.55
2022-10-06T22:21:17.571Z,54.10
2022-10-06T22:26:15.159Z,53.51
2022-10-06T22:31:12.445Z,52.93
2022-10-06T22:36:10.636Z,54.32
2022-10-06T22:41:08.187Z,55.50
2022-10-06T22:46:05.142Z,54.90
2022-10-06T22:51:02.390Z,55.47
2022-10-06T22:55:59.189Z,53.89
2022-10-06T23:00:55.793Z,54.56
2022-10-06T23:05:56.031Z,54.22
2022-10-06T23:10:53.430Z,54.86
2022-10-06T23:15:51.829Z,54.93
2022-10-06T23:20:48.504Z,54.32
2022-10-06T23:25:45.129Z,56.55
2022-10-06T23:30:42.954Z,56.13
2022-10-06T23:35:39.506Z,55.68
2022-10-06T23:40:36.116Z,55.57
2022-10-06T23:45:32.678Z,55.04
2022-10-06T23:50:29.954Z,54.86
2022-10-06T23:55:26.494Z,55.76
